createdAt,value
2022-09-03T00:01:52.073Z,97770.78
2022-09-03T00:04:36.394Z,97776.59
2022-09-03T00:07:05.988Z,97768.06
2022-09-03T00:09:51.862Z,97773.00
2022-09-03T00:12:25.085Z,97775.28
2022-09-03T00:15:06.848Z,97769.50
2022-09-03T00:17:44.840Z,97769.91
2022-09-03T00:20:17.307Z,97763.59
2022-09-03T00:22:49.140Z,97766.66
2022-09-03T00:25:22.869Z,97760.44
2022-09-03T00:27:55.442Z,97764.59
2022-09-03T00:30:24.545Z,97763.72
2022-09-03T00:32:56.457Z,97761.97
2022-09-03T00:35:23.300Z,97766.13
2022-09-03T00:37:55.678Z,97752.66
2022-09-03T00:40:48.840Z,97752.47
2022-09-03T00:43:48.364Z,97756.94
2022-09-03T00:46:33.923Z,97760.88
2022-09-03T00:49:04.741Z,97753.66
2022-09-03T00:52:33.619Z,97758.91
2022-09-03T00:55:32.037Z,97754.75
2022-09-03T00:58:17.391Z,97750.41
2022-09-03T01:00:45.894Z,97751.16
2022-09-03T01:03:14.620Z,97752.13
2022-09-03T01:06:13.618Z,97743.50
2022-09-03T01:09:17.858Z,97746.69
2022-09-03T01:11:59.921Z,97750.94
2022-09-03T01:14:53.574Z,97744.63
2022-09-03T01:17:25.618Z,97754.84
2022-09-03T01:20:23.296Z,97760.63
2022-09-03T01:23:04.000Z,97762.41
2022-09-03T01:25:48.818Z,97757.38
2022-09-03T01:28:25.092Z,97752.03
2022-09-03T01:30:59.485Z,97756.72
2022-09-03T01:33:40.970Z,97756.16
2022-09-03T01:36:40.574Z,97754.00
2022-09-03T01:39:16.632Z,97742.97
2022-09-03T01:42:02.004Z,97749.94
2022-09-03T01:44:48.646Z,97739.59
2022-09-03T01:47:37.396Z,97748.84
2022-09-03T01:50:17.756Z,97749.41
2022-09-03T01:53:04.253Z,97742.09
2022-09-03T01:55:44.610Z,97745.59
2022-09-03T01:58:36.258Z,97750.25
2022-09-03T02:01:15.294Z,97745.22
2022-09-03T02:03:48.799Z,97750.06
2022-09-03T02:06:16.006Z,97750.16
2022-09-03T02:08:43.016Z,97738.56
2022-09-03T02:11:10.572Z,97747.19
2022-09-03T02:14:05.127Z,97743.94
2022-09-03T02:16:35.359Z,97739.56
2022-09-03T02:19:07.462Z,97739.22
2022-09-03T02:21:37.236Z,97748.38
2022-09-03T02:24:05.447Z,97742.59
2022-09-03T02:26:32.667Z,97741.75
2022-09-03T02:29:01.325Z,97750.69
2022-09-03T02:31:29.068Z,97739.03
2022-09-03T02:33:58.035Z,97739.66
2022-09-03T02:36:33.175Z,97743.06
2022-09-03T02:39:00.183Z,97741.84
2022-09-03T02:41:29.718Z,97739.75
2022-09-03T02:44:26.075Z,97739.69
2022-09-03T02:47:03.470Z,97736.72
2022-09-03T02:49:33.837Z,97733.97
2022-09-03T02:52:12.519Z,97735.84
2022-09-03T02:54:40.281Z,97728.22
2022-09-03T02:57:13.638Z,97730.59
2022-09-03T02:59:44.463Z,97718.38
2022-09-03T03:02:13.040Z,97711.19
2022-09-03T03:04:40.209Z,97718.28
2022-09-03T03:07:07.615Z,97724.97
2022-09-03T03:09:34.531Z,97728.34
2022-09-03T03:12:01.431Z,97735.19
2022-09-03T03:14:28.288Z,97744.28
2022-09-03T03:16:55.445Z,97728.34
2022-09-03T03:19:22.387Z,97718.50
2022-09-03T03:21:49.269Z,97723.50
2022-09-03T03:24:16.545Z,97722.09
2022-09-03T03:26:43.666Z,97733.59
2022-09-03T03:29:17.657Z,97736.59
2022-09-03T03:31:44.416Z,97734.44
2022-09-03T03:34:11.489Z,97727.13
2022-09-03T03:36:38.492Z,97721.69
2022-09-03T03:39:08.511Z,97729.41
2022-09-03T03:41:38.551Z,97718.72
2022-09-03T03:44:07.528Z,97715.91
2022-09-03T03:46:39.501Z,97717.22
2022-09-03T03:49:08.140Z,97713.03
2022-09-03T03:51:36.664Z,97716.03
2022-09-03T03:54:05.533Z,97721.44
2022-09-03T03:56:33.784Z,97722.91
2022-09-03T03:59:00.817Z,97722.56
2022-09-03T04:01:28.911Z,97726.28
2022-09-03T04:03:57.065Z,97722.56
2022-09-03T04:06:24.419Z,97724.50
2022-09-03T04:08:51.297Z,97729.19
2022-09-03T04:11:23.788Z,97724.81
2022-09-03T04:13:51.623Z,97720.88
2022-09-03T04:16:21.585Z,97719.03
2022-09-03T04:18:49.783Z,97716.84
2022-09-03T04:21:20.067Z,97718.47
2022-09-03T04:23:48.673Z,97716.09
2022-09-03T04:26:18.034Z,97715.53
2022-09-03T04:28:45.839Z,97707.91
2022-09-03T04:31:19.249Z,97710.31
2022-09-03T04:33:46.481Z,97714.66
2022-09-03T04:36:22.106Z,97719.22
2022-09-03T04:38:51.299Z,97710.41
2022-09-03T04:41:20.771Z,97718.25
2022-09-03T04:43:51.316Z,97709.00
2022-09-03T04:46:20.894Z,97714.09
2022-09-03T04:48:51.533Z,97714.75
2022-09-03T04:51:28.954Z,97725.94
2022-09-03T04:54:01.461Z,97717.88
2022-09-03T04:56:31.086Z,97715.59
2022-09-03T04:59:01.473Z,97715.84
2022-09-03T05:01:30.856Z,97721.28
2022-09-03T05:03:58.766Z,97717.78
2022-09-03T05:06:27.310Z,97723.88
2022-09-03T05:08:55.847Z,97718.97
2022-09-03T05:11:23.903Z,97717.81
2022-09-03T05:14:01.245Z,97715.53
2022-09-03T05:16:30.296Z,97717.47
2022-09-03T05:19:06.562Z,97714.22
2022-09-03T05:21:33.771Z,97723.81
2022-09-03T05:24:03.575Z,97726.44
2022-09-03T05:26:37.987Z,97728.38
2022-09-03T05:29:07.946Z,97734.72
2022-09-03T05:31:37.566Z,97736.38
2022-09-03T05:34:05.813Z,97739.31
2022-09-03T05:36:35.440Z,97738.66
2022-09-03T05:39:05.361Z,97734.16
2022-09-03T05:41:34.334Z,97737.25
2022-09-03T05:44:02.427Z,97733.66
2022-09-03T05:46:37.113Z,97731.03
2022-09-03T05:49:06.848Z,97730.50
2022-09-03T05:51:35.894Z,97733.97
2022-09-03T05:54:06.365Z,97724.06
2022-09-03T05:56:35.929Z,97735.53
2022-09-03T05:59:09.430Z,97728.91
2022-09-03T06:01:41.767Z,97732.38
2022-09-03T06:04:17.699Z,97739.59
2022-09-03T06:06:46.586Z,97745.72
2022-09-03T06:09:18.450Z,97748.00
2022-09-03T06:11:46.970Z,97741.31
2022-09-03T06:14:15.263Z,97747.03
2022-09-03T06:16:49.191Z,97742.00
2022-09-03T06:19:16.102Z,97750.25
2022-09-03T06:21:44.777Z,97756.16
2022-09-03T06:24:14.802Z,97753.88
2022-09-03T06:26:42.865Z,97751.91
2022-09-03T06:29:10.786Z,97757.72
2022-09-03T06:31:38.062Z,97752.22
2022-09-03T06:34:06.184Z,97760.97
2022-09-03T06:36:33.750Z,97767.72
2022-09-03T06:39:04.249Z,97764.91
2022-09-03T06:41:35.349Z,97773.00
2022-09-03T06:44:11.765Z,97765.75
2022-09-03T06:46:42.765Z,97760.75
2022-09-03T06:49:11.391Z,97762.41
2022-09-03T06:51:43.410Z,97769.50
2022-09-03T06:54:12.135Z,97774.06
2022-09-03T06:56:41.370Z,97784.25
2022-09-03T06:59:13.774Z,97774.06
2022-09-03T07:01:44.118Z,97777.78
2022-09-03T07:04:13.202Z,97783.56
2022-09-03T07:06:43.106Z,97781.06
2022-09-03T07:09:12.572Z,97779.44
2022-09-03T07:11:47.728Z,97781.16
2022-09-03T07:14:17.763Z,97785.09
2022-09-03T07:16:46.298Z,97782.16
2022-09-03T07:19:14.316Z,97765.22
2022-09-03T07:21:48.137Z,97767.66
2022-09-03T07:24:16.580Z,97778.00
2022-09-03T07:26:49.698Z,97763.91
2022-09-03T07:29:20.865Z,97763.91
2022-09-03T07:31:52.150Z,97764.03
2022-09-03T07:34:22.112Z,97766.91
2022-09-03T07:36:51.820Z,97768.06
2022-09-03T07:39:20.000Z,97769.69
2022-09-03T07:41:47.268Z,97769.59
2022-09-03T07:44:16.482Z,97773.22
2022-09-03T07:46:45.777Z,97774.94
2022-09-03T07:49:12.904Z,97768.94
2022-09-03T07:51:40.379Z,97777.97
2022-09-03T07:54:10.387Z,97773.94
2022-09-03T07:56:38.699Z,97773.72
2022-09-03T07:59:06.218Z,97777.00
2022-09-03T08:01:34.890Z,97772.44
2022-09-03T08:04:03.028Z,97784.47
2022-09-03T08:06:34.422Z,97776.22
2022-09-03T08:09:05.514Z,97776.81
2022-09-03T08:11:36.731Z,97787.50
2022-09-03T08:14:09.074Z,97784.88
2022-09-03T08:16:39.845Z,97802.38
2022-09-03T08:19:07.786Z,97801.69
2022-09-03T08:21:35.494Z,97803.78
2022-09-03T08:24:03.146Z,97800.44
2022-09-03T08:26:32.485Z,97799.78
2022-09-03T08:29:00.571Z,97807.31
2022-09-03T08:31:28.546Z,97805.03
2022-09-03T08:33:57.871Z,97805.16
2022-09-03T08:36:27.716Z,97799.56
2022-09-03T08:38:55.479Z,97808.75
2022-09-03T08:41:44.789Z,97806.16
2022-09-03T08:44:29.986Z,97811.19
2022-09-03T08:47:21.475Z,97809.69
2022-09-03T08:50:23.821Z,97813.28
2022-09-03T08:53:02.364Z,97820.13
2022-09-03T08:55:42.932Z,97825.34
2022-09-03T08:58:21.251Z,97821.97
2022-09-03T09:01:01.652Z,97807.66
2022-09-03T09:03:31.530Z,97810.28
2022-09-03T09:06:08.226Z,97810.00
2022-09-03T09:08:55.504Z,97816.66
2022-09-03T09:11:41.165Z,97811.00
2022-09-03T09:14:39.408Z,97826.72
2022-09-03T09:17:15.675Z,97814.25
2022-09-03T09:20:21.577Z,97823.09
2022-09-03T09:22:54.766Z,97827.25
2022-09-03T09:25:24.586Z,97818.09
2022-09-03T09:27:58.297Z,97808.94
2022-09-03T09:30:26.080Z,97814.91
2022-09-03T09:32:53.396Z,97815.44
2022-09-03T09:35:20.443Z,97815.09
2022-09-03T09:37:56.566Z,97818.16
2022-09-03T09:40:41.481Z,97820.03
2022-09-03T09:43:12.276Z,97819.13
2022-09-03T09:45:44.228Z,97820.63
2022-09-03T09:48:20.371Z,97821.72
2022-09-03T09:50:47.313Z,97816.38
2022-09-03T09:53:18.713Z,97817.16
2022-09-03T09:55:56.787Z,97803.84
2022-09-03T09:58:27.988Z,97814.09
2022-09-03T10:01:15.645Z,97817.78
2022-09-03T10:03:55.625Z,97822.19
2022-09-03T10:06:49.876Z,97824.34
2022-09-03T10:09:31.623Z,97825.25
2022-09-03T10:12:14.679Z,97831.91
2022-09-03T10:14:48.409Z,97835.94
2022-09-03T10:17:36.678Z,97827.41
2022-09-03T10:20:26.141Z,97826.31
2022-09-03T10:23:10.505Z,97837.72
2022-09-03T10:25:53.692Z,97832.66
2022-09-03T10:28:27.049Z,97827.53
2022-09-03T10:31:32.122Z,97827.25
2022-09-03T10:34:06.668Z,97825.88
2022-09-03T10:36:55.675Z,97824.69
2022-09-03T10:39:28.953Z,97823.50
2022-09-03T10:42:08.558Z,97819.47
2022-09-03T10:44:45.288Z,97827.25
2022-09-03T10:47:41.985Z,97820.59
2022-09-03T10:50:26.570Z,97822.66
2022-09-03T10:53:11.149Z,97817.09
2022-09-03T10:55:57.155Z,97828.59
2022-09-03T10:58:33.415Z,97825.56
2022-09-03T11:01:11.033Z,97829.56
2022-09-03T11:03:49.173Z,97830.34
2022-09-03T11:06:24.911Z,97821.75
2022-09-03T11:09:34.180Z,97823.91
2022-09-03T11:12:07.200Z,97818.78
2022-09-03T11:14:54.092Z,97818.09
2022-09-03T11:17:32.653Z,97815.03
2022-09-03T11:20:15.077Z,97803.16
2022-09-03T11:22:43.460Z,97806.09
2022-09-03T11:25:14.218Z,97800.31
2022-09-03T11:27:55.891Z,97806.38
2022-09-03T11:30:37.048Z,97802.38
2022-09-03T11:33:09.757Z,97801.31
2022-09-03T11:35:36.938Z,97804.09
2022-09-03T11:38:23.103Z,97791.78
2022-09-03T11:41:00.033Z,97789.50
2022-09-03T11:43:30.103Z,97794.81
2022-09-03T11:46:14.291Z,97792.56
2022-09-03T11:48:43.972Z,97789.44
2022-09-03T11:51:21.921Z,97775.94
2022-09-03T11:53:59.699Z,97777.72
2022-09-03T11:56:26.851Z,97776.22
2022-09-03T11:59:13.836Z,97775.13
2022-09-03T12:01:56.999Z,97772.50
2022-09-03T12:04:39.541Z,97773.16
2022-09-03T12:07:17.577Z,97772.34
2022-09-03T12:09:53.489Z,97770.47
2022-09-03T12:12:38.095Z,97771.66
2022-09-03T12:15:43.327Z,97777.19
2022-09-03T12:18:24.070Z,97770.84
2022-09-03T12:20:55.857Z,97763.59
2022-09-03T12:23:50.601Z,97767.50
2022-09-03T12:26:20.341Z,97769.81
2022-09-03T12:28:52.717Z,97770.56
2022-09-03T12:31:23.894Z,97775.47
2022-09-03T12:33:59.273Z,97769.03
2022-09-03T12:36:49.719Z,97759.88
2022-09-03T12:42:20.835Z,97764.75
2022-09-03T12:44:48.269Z,97765.13
2022-09-03T12:47:37.577Z,97759.81
2022-09-03T12:50:25.715Z,97762.78
2022-09-03T12:52:56.965Z,97756.44
2022-09-03T12:55:55.146Z,97768.88
2022-09-03T12:58:35.808Z,97767.28
2022-09-03T13:01:14.663Z,97756.38
2022-09-03T13:03:54.445Z,97761.72
2022-09-03T13:06:29.046Z,97763.00
2022-09-03T13:09:05.808Z,97761.81
2022-09-03T13:11:37.416Z,97754.59
2022-09-03T13:14:11.429Z,97760.34
2022-09-03T13:16:38.637Z,97753.19
2022-09-03T13:19:14.661Z,97763.38
2022-09-03T13:21:57.782Z,97762.16
2022-09-03T13:24:43.497Z,97762.28
2022-09-03T13:27:42.016Z,97752.59
2022-09-03T13:30:13.485Z,97751.34
2022-09-03T13:32:57.507Z,97758.34
2022-09-03T13:35:29.804Z,97771.03
2022-09-03T13:38:19.422Z,97769.19
2022-09-03T13:40:58.518Z,97754.94
2022-09-03T13:43:29.002Z,97766.19
2022-09-03T13:46:40.698Z,97758.25
2022-09-03T13:49:49.304Z,97756.19
2022-09-03T13:52:43.222Z,97755.28
2022-09-03T13:55:20.840Z,97757.06
2022-09-03T13:57:47.771Z,97763.38
2022-09-03T14:00:25.367Z,97756.75
2022-09-03T14:03:19.557Z,97754.97
2022-09-03T14:05:49.492Z,97758.69
2022-09-03T14:08:35.747Z,97754.41
2022-09-03T14:11:32.963Z,97753.06
2022-09-03T14:14:17.207Z,97748.97
2022-09-03T14:17:03.048Z,97753.81
2022-09-03T14:19:39.666Z,97750.84
2022-09-03T14:22:27.042Z,97751.00
2022-09-03T14:25:05.748Z,97745.84
2022-09-03T14:27:34.239Z,97745.03
2022-09-03T14:30:07.705Z,97745.13
2022-09-03T14:32:48.992Z,97739.78
2022-09-03T14:36:03.973Z,97735.78
2022-09-03T14:38:39.988Z,97740.72
2022-09-03T14:41:42.654Z,97743.84
2022-09-03T14:44:24.443Z,97761.59
2022-09-03T14:47:15.385Z,97753.44
2022-09-03T14:50:10.934Z,97756.13
2022-09-03T14:53:22.761Z,97751.25
2022-09-03T14:56:22.084Z,97758.00
2022-09-03T14:59:10.424Z,97758.34
2022-09-03T15:01:38.740Z,97758.03
2022-09-03T15:04:09.499Z,97761.44
2022-09-03T15:06:58.158Z,97756.38
2022-09-03T15:09:43.129Z,97754.19
2022-09-03T15:12:35.820Z,97755.31
2022-09-03T15:15:10.591Z,97750.88
2022-09-03T15:17:55.826Z,97753.91
2022-09-03T15:20:29.320Z,97750.88
2022-09-03T15:23:13.418Z,97748.16
2022-09-03T15:25:59.193Z,97743.50
2022-09-03T15:28:46.823Z,97753.06
2022-09-03T15:31:51.062Z,97758.38
2022-09-03T15:34:46.014Z,97762.91
2022-09-03T15:37:25.696Z,97768.59
2022-09-03T15:40:34.212Z,97773.91
2022-09-03T15:43:13.047Z,97772.75
2022-09-03T15:46:03.164Z,97779.28
2022-09-03T15:48:58.176Z,97777.00
2022-09-03T15:51:34.276Z,97781.94
2022-09-03T15:54:12.847Z,97778.91
2022-09-03T15:57:24.631Z,97782.31
2022-09-03T16:00:29.724Z,97791.00
2022-09-03T16:03:08.821Z,97785.69
2022-09-03T16:05:52.590Z,97787.22
2022-09-03T16:08:44.226Z,97787.19
2022-09-03T16:11:36.414Z,97784.91
2022-09-03T16:14:34.911Z,97787.56
2022-09-03T16:17:09.357Z,97789.44
2022-09-03T16:19:48.348Z,97804.56
2022-09-03T16:22:52.208Z,97790.19
2022-09-03T16:25:32.752Z,97799.28
2022-09-03T16:28:28.594Z,97806.09
2022-09-03T16:31:08.088Z,97807.22
2022-09-03T16:33:50.602Z,97806.03
2022-09-03T16:36:30.321Z,97810.53
2022-09-03T16:39:19.707Z,97816.25
2022-09-03T16:41:59.030Z,97813.56
2022-09-03T16:44:45.525Z,97814.34
2022-09-03T16:47:22.744Z,97818.50
2022-09-03T16:50:09.911Z,97819.97
2022-09-03T16:52:59.400Z,97814.28
2022-09-03T16:55:39.725Z,97819.16
2022-09-03T16:58:25.475Z,97817.50
2022-09-03T17:01:00.172Z,97821.66
2022-09-03T17:04:11.972Z,97820.09
2022-09-03T17:07:03.849Z,97828.84
2022-09-03T17:10:03.575Z,97829.97
2022-09-03T17:12:50.212Z,97837.84
2022-09-03T17:15:33.975Z,97845.34
2022-09-03T17:18:03.893Z,97846.88
2022-09-03T17:20:33.911Z,97847.88
2022-09-03T17:23:07.008Z,97850.25
2022-09-03T17:25:50.203Z,97841.25
2022-09-03T17:29:02.055Z,97841.13
2022-09-03T17:31:51.267Z,97843.50
2022-09-03T17:34:33.551Z,97836.34
2022-09-03T17:37:45.313Z,97843.63
2022-09-03T17:40:37.231Z,97834.56
2022-09-03T17:43:22.668Z,97835.66
2022-09-03T17:46:05.062Z,97831.47
2022-09-03T17:48:46.004Z,97833.69
2022-09-03T17:51:22.449Z,97835.13
2022-09-03T17:53:54.998Z,97831.59
2022-09-03T17:56:30.593Z,97832.66
2022-09-03T17:59:38.496Z,97838.94
2022-09-03T18:02:14.384Z,97843.00
2022-09-03T18:04:45.074Z,97843.56
2022-09-03T18:07:42.399Z,97843.09
2022-09-03T18:10:27.919Z,97840.97
2022-09-03T18:13:11.932Z,97845.16
2022-09-03T18:15:46.866Z,97842.63
2022-09-03T18:18:34.544Z,97840.88
2022-09-03T18:21:31.311Z,97841.00
2022-09-03T18:24:26.362Z,97843.50
2022-09-03T18:27:18.875Z,97848.00
2022-09-03T18:30:08.898Z,97850.16
2022-09-03T18:32:54.481Z,97853.91
2022-09-03T18:35:48.740Z,97849.22
2022-09-03T18:38:42.270Z,97849.38
2022-09-03T18:41:58.901Z,97852.13
2022-09-03T18:45:18.590Z,97854.28
2022-09-03T18:48:20.206Z,97866.63
2022-09-03T18:51:12.028Z,97862.13
2022-09-03T18:54:12.855Z,97867.97
2022-09-03T18:57:08.518Z,97867.97
2022-09-03T19:00:18.686Z,97871.94
2022-09-03T19:03:19.616Z,97878.69
2022-09-03T19:06:20.327Z,97883.50
2022-09-03T19:09:08.887Z,97891.94
2022-09-03T19:28:55.018Z,97906.66
2022-09-03T19:31:46.249Z,97911.34
2022-09-03T19:34:43.998Z,97911.31
2022-09-03T19:37:39.330Z,97921.44
2022-09-03T19:40:58.991Z,97917.66
2022-09-03T19:44:26.140Z,97924.69
2022-09-03T19:47:20.833Z,97924.28
2022-09-03T19:50:30.916Z,97919.56
2022-09-03T19:53:20.830Z,97923.50
2022-09-03T19:56:31.808Z,97923.91
2022-09-03T19:59:25.147Z,97923.59
2022-09-03T20:02:11.226Z,97926.88
2022-09-03T20:05:03.193Z,97938.59
2022-09-03T20:07:50.226Z,97928.47
2022-09-03T20:10:24.545Z,97937.28
2022-09-03T20:13:12.339Z,97936.75
2022-09-03T20:16:01.153Z,97942.03
2022-09-03T20:18:35.015Z,97939.50
2022-09-03T20:21:10.139Z,97948.06
2022-09-03T20:23:57.300Z,97949.72
2022-09-03T20:26:54.301Z,97944.94
2022-09-03T20:29:45.884Z,97943.50
2022-09-03T20:32:34.038Z,97941.81
2022-09-03T20:35:00.935Z,97937.22
2022-09-03T20:38:01.099Z,97944.66
2022-09-03T20:40:54.656Z,97943.78
2022-09-03T20:43:41.791Z,97948.78
2022-09-03T20:46:32.552Z,97958.25
2022-09-03T20:49:21.047Z,97962.34
2022-09-03T20:52:06.603Z,97956.38
2022-09-03T20:55:20.137Z,97958.28
2022-09-03T20:58:07.341Z,97956.38
2022-09-03T21:01:02.966Z,97956.69
2022-09-03T21:04:12.399Z,97954.09
2022-09-03T21:06:45.329Z,97957.38
2022-09-03T21:09:27.480Z,97958.22
2022-09-03T21:12:12.437Z,97973.13
2022-09-03T21:14:58.953Z,97967.75
2022-09-03T21:17:37.959Z,97970.63
2022-09-03T21:20:10.776Z,97967.22
2022-09-03T21:23:16.190Z,97968.88
2022-09-03T21:25:52.145Z,97965.94
2022-09-03T21:28:57.617Z,97966.53
2022-09-03T21:31:49.641Z,97964.13
2022-09-03T21:34:23.615Z,97968.97
2022-09-03T21:36:52.924Z,97976.91
2022-09-03T21:39:31.748Z,97969.84
2022-09-03T21:41:58.778Z,97979.91
2022-09-03T21:44:25.638Z,97983.38
2022-09-03T21:46:57.107Z,97989.84
2022-09-03T21:49:32.030Z,97990.72
2022-09-03T21:52:03.927Z,97984.94
2022-09-03T21:54:33.853Z,97984.25
2022-09-03T21:57:26.327Z,97978.38
2022-09-03T22:00:02.161Z,97981.81
2022-09-03T22:02:40.633Z,97973.94
2022-09-03T22:05:08.552Z,97976.22
2022-09-03T22:08:00.512Z,97975.81
2022-09-03T22:10:32.966Z,97979.19
2022-09-03T22:13:17.037Z,97986.25
2022-09-03T22:15:51.131Z,97984.53
2022-09-03T22:18:31.176Z,97978.47
2022-09-03T22:21:20.469Z,97986.22
2022-09-03T22:23:55.748Z,97985.88
2022-09-03T22:27:00.866Z,97987.50
2022-09-03T22:29:43.648Z,97986.75
2022-09-03T22:32:25.105Z,97981.56
2022-09-03T22:35:22.581Z,97993.16
2022-09-03T22:38:11.163Z,97991.38
2022-09-03T22:40:52.401Z,97982.72
2022-09-03T22:43:19.610Z,97986.31
2022-09-03T22:46:20.641Z,97987.41
2022-09-03T22:48:50.488Z,97984.41
2022-09-03T22:51:21.659Z,97991.00
2022-09-03T22:53:55.138Z,97992.66
2022-09-03T22:56:24.990Z,97995.31
2022-09-03T22:58:54.030Z,97994.03
2022-09-03T23:04:53.153Z,97996.91
2022-09-03T23:07:29.559Z,98001.47
2022-09-03T23:10:05.623Z,98000.91
2022-09-03T23:12:43.052Z,98011.41
2022-09-03T23:15:32.735Z,98008.19
2022-09-03T23:18:11.423Z,98010.56
2022-09-03T23:20:43.651Z,98012.06
2022-09-03T23:23:19.093Z,98015.97
2022-09-03T23:25:51.826Z,98027.06
2022-09-03T23:28:28.688Z,98027.19
2022-09-03T23:31:03.606Z,98022.84
2022-09-03T23:33:33.223Z,98023.22
2022-09-03T23:36:08.918Z,98028.78
2022-09-03T23:38:35.749Z,98023.56
2022-09-03T23:41:12.959Z,98022.50
2022-09-03T23:44:17.468Z,98032.78
2022-09-03T23:47:21.420Z,98025.34
2022-09-03T23:49:59.304Z,98021.75
2022-09-03T23:53:05.402Z,98023.28
2022-09-03T23:56:00.538Z,98028.81
2022-09-03T23:58:48.494Z,98025.19
